Time;durP1;ratioP1;P1;durP2;ratioP2;P2;SDS_P1;SDS_P2;PMS_P1;PMS_P2;Temp;Humidity;BMP_temperature;BMP_pressure;BME280_temperature;BME280_humidity;BME280_pressure;Samples;Min_cycle;Max_cycle;Signal;HPM_P1;HPM_P2
2021/05/27 00:00:31;;;;;;;2.15;1.45;;;;;;;6.92;100.00;95886.72;1034572;28;20118;-67
2021/05/27 00:01:02;;;;;;;1.80;1.55;;;;;;;6.89;100.00;95881.19;1023998;28;20173;-68
2021/05/27 00:01:32;;;;;;;1.83;1.65;;;;;;;6.89;100.00;95875.97;1026684;28;20274;-70
2021/05/27 00:02:03;;;;;;;1.67;1.58;;;;;;;6.91;100.00;95881.72;1032657;28;20062;-69
2021/05/27 00:02:33;;;;;;;3.10;1.90;;;;;;;6.93;100.00;95887.50;1034171;28;20615;-68
2021/05/27 00:03:05;;;;;;;1.92;1.75;;;;;;;6.91;100.00;95885.16;1030588;28;20232;-69
2021/05/27 00:03:36;;;;;;;2.38;2.13;;;;;;;6.90;100.00;95877.53;1042757;28;20040;-70
2021/05/27 00:04:06;;;;;;;4.13;1.75;;;;;;;6.91;100.00;95885.16;1034681;28;20396;-68
2021/05/27 00:04:37;;;;;;;1.00;0.90;;;;;;;6.89;100.00;95883.78;1026661;28;20125;-69
2021/05/27 00:05:08;;;;;;;1.80;1.30;;;;;;;6.88;100.00;95879.63;1030746;28;20066;-67
2021/05/27 00:05:38;;;;;;;2.28;1.60;;;;;;;6.89;100.00;95881.19;1030093;28;20065;-69
2021/05/27 00:06:08;;;;;;;3.00;1.38;;;;;;;6.90;100.00;95877.53;1034084;28;20269;-68
2021/05/27 00:06:39;;;;;;;2.13;1.60;;;;;;;6.90;100.00;95878.31;1030821;28;20154;-67
2021/05/27 00:07:09;;;;;;;6.07;1.50;;;;;;;6.90;100.00;95882.75;1038638;28;20112;-67
2021/05/27 00:07:41;;;;;;;2.88;1.50;;;;;;;6.90;100.00;95878.31;1030909;28;20030;-67
2021/05/27 00:08:11;;;;;;;2.90;1.42;;;;;;;6.88;100.00;95880.41;1034622;28;20026;-67
2021/05/27 00:08:41;;;;;;;2.80;1.30;;;;;;;6.85;100.00;95875.66;1030692;28;20297;-67
2021/05/27 00:09:12;;;;;;;1.80;1.50;;;;;;;6.87;100.00;95883.22;1042917;28;20390;-68
2021/05/27 00:09:45;;;;;;;1.73;1.48;;;;;;;6.86;100.00;95877.22;1034840;28;20030;-67
2021/05/27 00:10:17;;;;;;;1.85;1.38;;;;;;;6.83;100.00;95878.47;1034704;28;20910;-67
2021/05/27 00:10:48;;;;;;;1.70;1.52;;;;;;;6.84;100.00;95877.47;1030419;28;20038;-68
2021/05/27 00:11:19;;;;;;;1.23;1.13;;;;;;;6.84;100.00;95872.25;1030812;28;20269;-68
2021/05/27 00:11:49;;;;;;;2.05;1.35;;;;;;;6.84;100.00;95874.03;1026771;28;20591;-67
2021/05/27 00:12:22;;;;;;;2.97;1.35;;;;;;;6.85;100.00;95880.88;1037702;28;20457;-69
2021/05/27 00:12:53;;;;;;;2.40;1.40;;;;;;;6.84;100.00;95879.25;1029364;28;20340;-70
2021/05/27 00:13:23;;;;;;;1.50;1.23;;;;;;;6.85;100.00;95875.66;1034633;28;20029;-69
2021/05/27 00:13:54;;;;;;;2.38;1.45;;;;;;;6.84;100.00;95884.47;1033892;28;20077;-69
2021/05/27 00:14:24;;;;;;;1.75;1.65;;;;;;;6.84;100.00;95882.69;1038627;28;20447;-68
2021/05/27 00:14:54;;;;;;;1.90;1.45;;;;;;;6.84;100.00;95880.06;1032771;28;20033;-67
2021/05/27 00:15:27;;;;;;;1.83;1.42;;;;;;;6.86;100.00;95885.03;1026711;28;20053;-67
2021/05/27 00:15:58;;;;;;;3.55;1.75;;;;;;;6.85;100.00;95881.66;1034075;28;20026;-67
2021/05/27 00:16:31;;;;;;;3.63;1.60;;;;;;;6.84;100.00;95880.06;1030523;28;20707;-67
2021/05/27 00:17:01;;;;;;;2.92;1.70;;;;;;;6.87;100.00;95880.63;1037271;28;20351;-67
2021/05/27 00:17:32;;;;;;;2.33;2.10;;;;;;;6.86;100.00;95882.44;1026661;28;20290;-69
2021/05/27 00:18:02;;;;;;;2.15;1.48;;;;;;;6.82;100.00;95874.28;1027043;28;20030;-69
2021/05/27 00:18:33;;;;;;;5.03;1.48;;;;;;;6.84;100.00;95880.06;1035109;28;20148;-67
2021/05/27 00:19:03;;;;;;;3.47;1.73;;;;;;;6.83;100.00;95883.69;1034961;28;20045;-69
2021/05/27 00:19:34;;;;;;;1.67;1.25;;;;;;;6.85;100.00;95884.25;1034676;28;20116;-69
2021/05/27 00:20:05;;;;;;;1.75;1.60;;;;;;;6.87;100.00;95883.22;1037756;28;20036;-67
2021/05/27 00:20:35;;;;;;;1.95;1.30;;;;;;;6.75;100.00;95871.03;1022650;29;20051;-67
2021/05/27 00:21:08;;;;;;;2.10;1.63;;;;;;;6.81;100.00;95880.53;1026922;28;20274;-68
2021/05/27 00:21:39;;;;;;;2.75;1.75;;;;;;;6.82;100.00;95882.13;1030662;28;20365;-67
2021/05/27 00:22:10;;;;;;;3.60;1.90;;;;;;;6.82;100.00;95878.72;1030623;28;20311;-67
2021/05/27 00:22:41;;;;;;;3.15;2.00;;;;;;;6.77;100.00;95869.00;1033680;28;20030;-67
2021/05/27 00:23:11;;;;;;;2.25;1.42;;;;;;;6.84;100.00;95880.06;1034595;28;20256;-67
2021/05/27 00:23:45;;;;;;;1.65;1.40;;;;;;;6.83;100.00;95883.69;1034761;28;20022;-67
2021/05/27 00:24:15;;;;;;;1.92;1.63;;;;;;;6.83;100.00;95881.09;1030677;28;20357;-67
2021/05/27 00:24:46;;;;;;;2.17;1.50;;;;;;;6.83;100.00;95883.69;1038571;28;20033;-67
2021/05/27 00:25:19;;;;;;;2.45;1.90;;;;;;;6.84;100.00;95880.06;1026647;28;20050;-68
2021/05/27 00:25:50;;;;;;;1.42;1.33;;;;;;;6.84;100.00;95887.09;1029987;28;20038;-66
2021/05/27 00:26:20;;;;;;;1.70;1.30;;;;;;;6.83;100.00;95880.28;1029297;28;20827;-66
2021/05/27 00:26:50;;;;;;;3.30;1.63;;;;;;;6.83;100.00;95886.31;1030815;28;20546;-66
2021/05/27 00:27:22;;;;;;;3.17;1.75;;;;;;;6.80;100.00;95878.94;1026590;28;20027;-67
2021/05/27 00:27:53;;;;;;;3.80;2.28;;;;;;;6.83;100.00;95877.69;1030364;28;20026;-66
2021/05/27 00:28:23;;;;;;;1.85;1.60;;;;;;;6.81;100.00;95875.34;1034571;28;20354;-66
2021/05/27 00:28:54;;;;;;;2.13;1.85;;;;;;;6.81;100.00;95882.38;1034644;28;20029;-70
2021/05/27 00:29:24;;;;;;;2.15;1.77;;;;;;;6.82;100.00;95882.13;1038798;28;20169;-66
2021/05/27 00:29:55;;;;;;;2.50;1.55;;;;;;;6.83;100.00;95873.25;1037338;28;20053;-67
2021/05/27 00:30:26;;;;;;;2.03;1.85;;;;;;;6.83;100.00;95881.09;1034872;28;20180;-66
2021/05/27 00:30:57;;;;;;;1.58;1.48;;;;;;;6.80;100.00;95873.72;1030195;28;20500;-68
2021/05/27 00:31:27;;;;;;;2.75;1.42;;;;;;;6.83;100.00;95880.28;1028038;28;20274;-68
2021/05/27 00:31:58;;;;;;;2.42;1.63;;;;;;;6.82;100.00;95882.13;1032419;28;20088;-68
2021/05/27 00:32:28;;;;;;;2.08;1.77;;;;;;;6.81;100.00;95877.94;1034604;28;20515;-66
2021/05/27 00:32:59;;;;;;;2.55;1.70;;;;;;;6.81;100.00;95877.16;1034698;28;20018;-68
2021/05/27 00:33:29;;;;;;;2.00;1.73;;;;;;;6.81;100.00;95880.53;1026674;28;20034;-66
2021/05/27 00:34:00;;;;;;;3.53;1.70;;;;;;;6.83;100.00;95877.69;1032848;28;20049;-69
2021/05/27 00:34:31;;;;;;;1.40;1.30;;;;;;;6.84;100.00;95880.06;1034630;28;20036;-69
2021/05/27 00:35:02;;;;;;;1.52;1.38;;;;;;;6.81;100.00;95885.75;1022421;28;20050;-68
2021/05/27 00:35:32;;;;;;;3.83;1.85;;;;;;;6.80;100.00;95878.94;1026608;28;20023;-68
2021/05/27 00:36:03;;;;;;;2.80;1.80;;;;;;;6.82;100.00;95881.34;1025801;28;20449;-68
2021/05/27 00:36:34;;;;;;;1.75;1.50;;;;;;;6.82;100.00;95884.72;1026481;28;20027;-68
2021/05/27 00:37:04;;;;;;;4.18;1.88;;;;;;;6.84;100.00;95882.69;1022688;28;20457;-70
2021/05/27 00:37:35;;;;;;;2.53;1.73;;;;;;;6.85;100.00;95875.66;1030766;28;20574;-69
2021/05/27 00:38:05;;;;;;;2.78;1.63;;;;;;;6.82;100.00;95876.91;1033008;28;20083;-66
2021/05/27 00:38:36;;;;;;;4.82;1.83;;;;;;;6.81;100.00;95875.34;1026693;28;20765;-67
2021/05/27 00:39:06;;;;;;;2.33;1.50;;;;;;;6.83;100.00;95875.88;1022947;29;20843;-67
2021/05/27 00:39:37;;;;;;;2.83;1.95;;;;;;;6.80;100.00;95873.72;1024809;28;20049;-64
2021/05/27 00:40:09;;;;;;;3.80;1.70;;;;;;;6.82;100.00;95876.13;1032518;28;20030;-68
2021/05/27 00:40:39;;;;;;;1.88;1.60;;;;;;;6.82;100.00;95876.13;1026661;28;20041;-67
2021/05/27 00:41:10;;;;;;;3.30;2.13;;;;;;;6.81;100.00;95874.53;1030510;28;21085;-68
2021/05/27 00:41:40;;;;;;;2.58;1.60;;;;;;;6.79;100.00;95871.38;1030717;28;20035;-67
2021/05/27 00:42:11;;;;;;;3.55;2.05;;;;;;;6.84;100.00;95874.88;1030515;28;20066;-67
2021/05/27 00:42:41;;;;;;;2.40;1.77;;;;;;;6.85;100.00;95880.88;1038977;28;20069;-67
2021/05/27 00:43:12;;;;;;;3.53;2.05;;;;;;;6.84;100.00;95880.06;1038648;28;20064;-67
2021/05/27 00:43:42;;;;;;;2.17;1.98;;;;;;;6.85;100.00;95879.03;1034927;28;20056;-67
2021/05/27 00:44:19;;;;;;;2.25;1.88;;;;;;;6.84;100.00;95874.88;1026521;28;20133;-66
2021/05/27 00:45:03;;;;;;;3.75;1.80;;;;;;;6.85;100.00;95880.88;1034651;28;20022;-67
2021/05/27 00:45:33;;;;;;;1.75;1.58;;;;;;;6.84;100.00;95881.88;1034883;28;20263;-66
2021/05/27 00:46:04;;;;;;;2.63;2.00;;;;;;;6.85;100.00;95886.09;1030135;28;20304;-67
2021/05/27 00:46:34;;;;;;;2.55;2.03;;;;;;;6.85;100.00;95884.25;1026350;28;20073;-66
2021/05/27 00:47:09;;;;;;;2.50;1.83;;;;;;;6.81;100.00;95875.34;1030854;28;20030;-67
2021/05/27 00:47:39;;;;;;;4.43;2.33;;;;;;;6.80;100.00;95878.94;1030790;28;20100;-67
2021/05/27 00:48:56;;;;;;;4.10;2.35;;;;;;;6.82;100.00;95879.50;1034673;28;20766;-67
2021/05/27 00:49:00;;;;;;;3.40;2.20;;;;;;;6.82;100.00;95882.13;1034751;28;20101;-69
2021/05/27 00:49:34;;;;;;;2.72;2.17;;;;;;;6.83;100.00;95872.47;1022733;29;20070;-69
2021/05/27 00:50:07;;;;;;;4.45;2.63;;;;;;;6.83;100.00;95873.25;1038543;28;20037;-69
2021/05/27 00:50:38;;;;;;;3.75;2.58;;;;;;;6.84;100.00;95880.06;1030384;28;20904;-71
2021/05/27 00:51:08;;;;;;;3.45;2.70;;;;;;;6.86;100.00;95879.84;1034655;28;20288;-69
2021/05/27 00:51:39;;;;;;;4.55;2.15;;;;;;;6.86;100.00;95874.63;1034807;28;20112;-68
2021/05/27 00:52:09;;;;;;;2.80;2.33;;;;;;;6.85;100.00;95879.03;1026411;28;20023;-66
2021/05/27 00:52:40;;;;;;;3.30;2.40;;;;;;;6.88;100.00;95879.63;1030403;28;20030;-68
2021/05/27 00:53:10;;;;;;;2.08;1.80;;;;;;;6.84;100.00;95877.47;1026614;28;20098;-66
2021/05/27 00:53:41;;;;;;;4.20;2.10;;;;;;;6.87;100.00;95880.63;1033233;28;20014;-67
2021/05/27 00:54:12;;;;;;;2.25;2.05;;;;;;;6.85;100.00;95876.44;1030647;28;20033;-67
2021/05/27 00:54:42;;;;;;;3.28;2.10;;;;;;;6.84;100.00;95880.06;1030545;28;20033;-67
2021/05/27 00:55:13;;;;;;;2.30;2.10;;;;;;;6.85;100.00;95875.66;1030549;28;20384;-67
2021/05/27 00:55:43;;;;;;;3.13;2.17;;;;;;;6.83;100.00;95886.31;1030282;28;20150;-66
2021/05/27 00:56:14;;;;;;;2.50;2.10;;;;;;;6.82;100.00;95876.91;1030664;28;20423;-68
2021/05/27 00:56:45;;;;;;;4.75;2.33;;;;;;;6.79;100.00;95876.59;1030893;28;20026;-67
2021/05/27 00:57:28;;;;;;;4.03;2.28;;;;;;;6.82;100.00;95876.91;1026615;28;20023;-67
2021/05/27 00:57:59;;;;;;;2.95;2.20;;;;;;;6.78;100.00;95878.41;1034872;28;20253;-68
2021/05/27 00:58:30;;;;;;;3.17;2.42;;;;;;;6.80;100.00;95881.56;1031013;28;20269;-70
2021/05/27 00:59:01;;;;;;;2.63;1.98;;;;;;;6.80;100.00;95876.34;1030440;28;20265;-67
2021/05/27 00:59:31;;;;;;;4.57;2.55;;;;;;;6.80;100.00;95889.38;1030705;28;20030;-67
2021/05/27 01:00:12;;;;;;;2.78;2.20;;;;;;;6.74;100.00;95876.47;1033334;28;20015;-67
2021/05/27 01:00:42;;;;;;;2.90;2.58;;;;;;;6.79;100.00;95882.59;1030106;28;20050;-69
2021/05/27 01:01:13;;;;;;;3.22;2.30;;;;;;;6.79;100.00;95884.41;1030591;28;20030;-66
2021/05/27 01:01:43;;;;;;;5.25;3.10;;;;;;;6.79;100.00;95881.78;1030858;28;20118;-67
2021/05/27 01:02:14;;;;;;;4.70;2.88;;;;;;;6.79;100.00;95877.38;1030643;28;20050;-67
2021/05/27 01:02:44;;;;;;;5.45;2.60;;;;;;;6.79;100.00;95885.19;1030624;28;20058;-67
2021/05/27 01:03:15;;;;;;;6.57;2.70;;;;;;;6.79;100.00;95881.78;1047013;28;20549;-66
2021/05/27 01:03:45;;;;;;;3.78;3.15;;;;;;;6.78;100.00;95888.84;1034664;28;20026;-66
2021/05/27 01:04:17;;;;;;;5.28;2.95;;;;;;;6.77;100.00;95884.66;1030844;28;20019;-66
2021/05/27 01:04:47;;;;;;;2.97;2.60;;;;;;;6.77;100.00;95887.25;1026642;28;20027;-67
2021/05/27 01:05:18;;;;;;;4.40;2.97;;;;;;;6.77;100.00;95889.88;1026562;28;21440;-67
2021/05/27 01:05:48;;;;;;;4.90;3.10;;;;;;;6.75;100.00;95878.09;1030838;28;20097;-66
2021/05/27 01:06:19;;;;;;;3.92;2.88;;;;;;;6.77;100.00;95886.44;1026193;28;20193;-67
2021/05/27 01:06:49;;;;;;;3.60;2.70;;;;;;;6.78;100.00;95890.66;1030635;28;20030;-66
2021/05/27 01:07:20;;;;;;;4.18;3.13;;;;;;;6.80;100.00;95891.19;1026472;28;20477;-66
2021/05/27 01:07:51;;;;;;;4.18;3.40;;;;;;;6.80;100.00;95889.38;1026738;28;20027;-68
2021/05/27 01:08:21;;;;;;;4.47;3.05;;;;;;;6.80;100.00;95894.59;1026751;28;20811;-68
2021/05/27 01:08:52;;;;;;;9.52;3.88;;;;;;;6.83;100.00;95890.72;1026507;28;20095;-67
2021/05/27 01:09:22;;;;;;;3.72;3.05;;;;;;;6.82;100.00;95891.75;1026705;28;20027;-67
2021/05/27 01:09:53;;;;;;;3.05;2.58;;;;;;;6.81;100.00;95890.97;1030737;28;20046;-67
2021/05/27 01:10:23;;;;;;;5.43;3.70;;;;;;;6.81;100.00;95896.19;1030476;28;20015;-66
2021/05/27 01:10:54;;;;;;;4.07;2.97;;;;;;;6.81;100.00;95900.63;1030594;28;20069;-66
2021/05/27 01:11:25;;;;;;;5.00;3.13;;;;;;;6.81;100.00;95896.19;1026529;28;20031;-66
2021/05/27 01:11:59;;;;;;;4.20;3.20;;;;;;;6.82;100.00;95891.75;1038938;28;20029;-67
2021/05/27 01:12:29;;;;;;;3.70;3.08;;;;;;;6.81;100.00;95890.97;1030494;28;20275;-68
2021/05/27 01:13:00;;;;;;;3.17;2.72;;;;;;;6.82;100.00;95891.75;1030717;28;20277;-67
2021/05/27 01:13:31;;;;;;;6.32;3.22;;;;;;;6.83;100.00;95899.34;1034664;28;20080;-67
2021/05/27 01:15:25;;;;;;;7.45;4.40;;;;;;;6.84;100.00;95897.50;1027172;28;20258;-65
2021/05/27 01:15:58;;;;;;;5.47;3.40;;;;;;;6.85;100.00;95901.72;1026875;28;20725;-69
2021/05/27 01:16:29;;;;;;;4.65;3.30;;;;;;;6.85;100.00;95902.50;1027150;28;20269;-66
2021/05/27 01:17:00;;;;;;;4.30;3.30;;;;;;;6.83;100.00;95904.56;1023544;29;20027;-66
2021/05/27 01:17:30;;;;;;;5.55;3.25;;;;;;;6.82;100.00;95899.59;1027320;28;20396;-68
2021/05/27 01:18:10;;;;;;;3.67;3.00;;;;;;;6.80;100.00;95899.81;1023976;28;20519;-68
2021/05/27 01:18:41;;;;;;;6.43;3.47;;;;;;;6.84;100.00;95894.91;1031411;28;20034;-66
2021/05/27 01:19:11;;;;;;;5.15;3.30;;;;;;;6.82;100.00;95902.97;1031326;28;20027;-69
2021/05/27 01:19:42;;;;;;;4.68;3.17;;;;;;;6.80;100.00;95899.81;1027314;28;20035;-67
2021/05/27 01:20:13;;;;;;;7.55;4.40;;;;;;;6.85;100.00;95906.94;1028205;28;20023;-66
2021/05/27 01:20:45;;;;;;;4.35;3.45;;;;;;;6.85;100.00;95901.72;1031495;28;20022;-66
2021/05/27 01:21:17;;;;;;;5.68;4.18;;;;;;;6.86;100.00;95903.31;1023426;29;20065;-66
2021/05/27 01:21:50;;;;;;;5.25;3.22;;;;;;;6.85;100.00;95906.94;1034697;28;20291;-67
2021/05/27 01:22:20;;;;;;;6.47;4.20;;;;;;;6.87;100.00;95914.53;1035639;28;20041;-67
2021/05/27 01:22:51;;;;;;;9.40;4.75;;;;;;;6.82;100.00;95902.97;1035201;28;20824;-66
2021/05/27 01:23:23;;;;;;;7.25;4.15;;;;;;;6.78;100.00;95901.88;1043699;28;20071;-68
2021/05/27 01:23:54;;;;;;;4.43;3.53;;;;;;;6.83;100.00;95911.59;1031329;28;20030;-69
2021/05/27 01:24:24;;;;;;;5.72;4.18;;;;;;;6.82;100.00;95905.59;1031707;28;20268;-68
2021/05/27 01:24:55;;;;;;;9.77;5.32;;;;;;;6.82;100.00;95918.63;1031426;28;20469;-66
2021/05/27 01:25:25;;;;;;;6.40;4.20;;;;;;;6.85;100.00;95906.94;1035520;28;20514;-68
2021/05/27 01:25:57;;;;;;;6.45;4.40;;;;;;;6.87;100.00;95910.09;1038833;28;20056;-65
2021/05/27 01:26:27;;;;;;;7.32;3.90;;;;;;;6.86;100.00;95911.13;1038658;28;20025;-68
2021/05/27 01:26:58;;;;;;;6.18;3.88;;;;;;;6.85;100.00;95909.56;1035532;28;20774;-66
2021/05/27 01:27:28;;;;;;;4.60;3.63;;;;;;;6.77;100.00;95907.31;1035422;28;20057;-67
2021/05/27 01:27:59;;;;;;;7.50;4.88;;;;;;;6.86;100.00;95908.53;1026857;28;20097;-66
2021/05/27 01:28:31;;;;;;;8.98;4.60;;;;;;;6.79;100.00;95903.44;1031301;28;20443;-67
2021/05/27 01:29:02;;;;;;;7.47;4.70;;;;;;;6.86;100.00;95913.75;1027514;28;20095;-67
2021/05/27 01:29:33;;;;;;;9.77;5.18;;;;;;;6.87;100.00;95914.53;1028166;28;20282;-67
2021/05/27 01:30:05;;;;;;;7.85;4.47;;;;;;;6.88;100.00;95916.13;1030055;28;20450;-67
2021/05/27 01:30:35;;;;;;;9.13;5.00;;;;;;;6.81;100.00;95901.41;1023335;29;20090;-67
2021/05/27 01:31:06;;;;;;;8.52;5.13;;;;;;;6.90;100.00;95911.44;1026534;28;20270;-66
2021/05/27 01:31:37;;;;;;;7.55;4.93;;;;;;;6.90;100.00;95912.25;1031356;28;20027;-67
2021/05/27 01:32:08;;;;;;;6.80;4.82;;;;;;;6.91;100.00;95907.81;1030541;28;20312;-66
2021/05/27 01:32:39;;;;;;;6.32;3.95;;;;;;;6.84;100.00;95898.34;1035493;28;20081;-66
2021/05/27 01:33:10;;;;;;;5.43;4.00;;;;;;;6.90;100.00;95908.84;1025200;28;20835;-67
2021/05/27 01:33:41;;;;;;;5.57;4.35;;;;;;;6.85;100.00;95897.31;1035592;28;20014;-66
2021/05/27 01:34:11;;;;;;;4.75;3.90;;;;;;;6.88;100.00;95906.47;1035276;28;20352;-66
2021/05/27 01:34:42;;;;;;;4.95;4.28;;;;;;;6.87;100.00;95901.47;1027001;28;20113;-66
2021/05/27 01:35:14;;;;;;;7.03;4.43;;;;;;;6.89;100.00;95902.06;1027470;28;20751;-67
2021/05/27 01:35:45;;;;;;;7.28;4.18;;;;;;;6.87;100.00;95904.88;1026845;28;20074;-66
2021/05/27 01:36:15;;;;;;;6.70;4.30;;;;;;;6.90;100.00;95909.63;1027085;28;20995;-65
2021/05/27 01:36:47;;;;;;;8.73;4.68;;;;;;;6.91;100.00;95908.63;1031339;28;20018;-67
2021/05/27 01:37:17;;;;;;;5.35;4.10;;;;;;;6.89;100.00;95908.06;1023424;29;20453;-67
2021/05/27 01:37:48;;;;;;;7.55;4.28;;;;;;;6.90;100.00;95907.03;1027361;28;20269;-67
2021/05/27 01:38:20;;;;;;;8.00;4.53;;;;;;;6.84;100.00;95895.72;1025586;28;20031;-67
2021/05/27 01:38:51;;;;;;;6.40;3.97;;;;;;;6.91;100.00;95899.97;1031331;28;20058;-67
2021/05/27 01:39:21;;;;;;;6.75;4.45;;;;;;;6.90;100.00;95901.81;1027508;28;20764;-66
2021/05/27 01:39:52;;;;;;;5.75;4.13;;;;;;;6.91;100.00;95905.19;1032830;28;20117;-66
2021/05/27 01:40:23;;;;;;;8.35;5.35;;;;;;;6.92;100.00;95907.59;1031388;28;20087;-66
2021/05/27 01:40:55;;;;;;;5.10;3.97;;;;;;;6.91;100.00;95905.19;1035348;28;20018;-69
2021/05/27 01:41:25;;;;;;;8.35;5.05;;;;;;;6.91;100.00;95905.19;1027560;28;20740;-66
2021/05/27 01:41:56;;;;;;;7.55;5.07;;;;;;;6.91;100.00;95905.19;1039626;28;20300;-67
2021/05/27 01:42:26;;;;;;;7.68;4.78;;;;;;;6.94;100.00;95912.56;1039446;28;20029;-67
2021/05/27 01:42:57;;;;;;;5.00;4.38;;;;;;;6.89;100.00;95902.06;1027330;28;20131;-66
2021/05/27 01:43:27;;;;;;;9.32;5.40;;;;;;;6.94;100.00;95909.94;1030206;28;20046;-67
2021/05/27 01:43:58;;;;;;;6.25;4.78;;;;;;;6.93;100.00;95903.16;1023440;29;20062;-67
2021/05/27 01:44:29;;;;;;;8.60;5.10;;;;;;;6.95;100.00;95907.13;1035398;28;20025;-65
2021/05/27 01:44:59;;;;;;;5.95;4.90;;;;;;;6.95;100.00;95911.56;1034321;28;20021;-66
2021/05/27 01:45:30;;;;;;;7.90;4.10;;;;;;;6.92;100.00;95912.03;1028326;28;20046;-68
2021/05/27 01:46:00;;;;;;;5.30;4.20;;;;;;;6.91;100.00;95910.41;1033509;28;20030;-68
2021/05/27 01:46:31;;;;;;;6.40;4.65;;;;;;;6.92;100.00;95906.81;1030721;28;20149;-69
2021/05/27 01:47:01;;;;;;;10.25;5.72;;;;;;;6.92;100.00;95906.81;1034836;28;20392;-69
2021/05/27 01:47:32;;;;;;;7.82;4.78;;;;;;;6.90;100.00;95908.84;1034965;28;20022;-68
2021/05/27 01:48:03;;;;;;;7.90;4.57;;;;;;;6.87;100.00;95915.31;1031020;28;20495;-68
2021/05/27 01:48:33;;;;;;;5.63;4.47;;;;;;;6.79;100.00;95907.88;1032606;28;20233;-67
2021/05/27 01:49:04;;;;;;;9.98;5.65;;;;;;;6.90;100.00;95912.25;1030906;28;20773;-67
2021/05/27 01:49:39;;;;;;;7.57;4.97;;;;;;;6.80;100.00;95899.81;1031056;28;20034;-67
2021/05/27 01:50:10;;;;;;;6.03;4.70;;;;;;;6.75;100.00;95893.72;1034706;28;20481;-68
2021/05/27 01:50:41;;;;;;;9.20;6.00;;;;;;;6.87;100.00;95915.31;1030964;28;20686;-68
2021/05/27 01:51:12;;;;;;;8.65;5.53;;;;;;;6.88;100.00;95909.09;1035049;28;20657;-68
2021/05/27 01:51:49;;;;;;;6.20;4.78;;;;;;;6.86;100.00;95918.94;1034719;28;20268;-67
2021/05/27 01:52:19;;;;;;;5.70;4.53;;;;;;;6.81;100.00;95904.00;1039339;28;20030;-69
2021/05/27 01:52:50;;;;;;;7.65;5.10;;;;;;;6.87;100.00;95910.09;1036052;28;20257;-69
2021/05/27 01:53:20;;;;;;;8.05;5.32;;;;;;;6.88;100.00;95909.09;1039167;28;20083;-66
2021/05/27 01:53:51;;;;;;;8.65;5.72;;;;;;;6.85;100.00;95907.72;1035932;28;20045;-68
2021/05/27 01:54:21;;;;;;;5.13;4.13;;;;;;;6.88;100.00;95914.31;1027582;28;20034;-68
2021/05/27 01:54:52;;;;;;;6.53;4.70;;;;;;;6.84;100.00;95905.34;1031333;28;20030;-68
2021/05/27 01:55:22;;;;;;;8.60;5.45;;;;;;;6.91;100.00;95907.81;1026968;28;20024;-68
2021/05/27 01:55:53;;;;;;;9.45;5.95;;;;;;;6.88;100.00;95903.09;1025911;28;20497;-65
2021/05/27 01:56:23;;;;;;;5.80;4.20;;;;;;;6.69;100.00;95874.59;1031185;28;20105;-68
2021/05/27 01:56:53;;;;;;;7.90;4.50;;;;;;;6.89;100.00;95908.06;1030744;28;20027;-68
2021/05/27 01:57:24;;;;;;;4.97;4.15;;;;;;;6.88;100.00;95911.69;1027064;28;20485;-70
2021/05/27 01:57:55;;;;;;;7.68;4.90;;;;;;;6.85;100.00;95907.72;1027371;28;20038;-67
2021/05/27 01:58:26;;;;;;;9.05;5.03;;;;;;;6.89;100.00;95915.09;1026809;28;20027;-67
2021/05/27 01:59:05;;;;;;;11.02;5.85;;;;;;;6.81;100.00;95901.41;1031313;28;20609;-70
2021/05/27 01:59:36;;;;;;;10.05;6.50;;;;;;;6.89;100.00;95915.09;1032722;28;20030;-68
2021/05/27 02:00:07;;;;;;;9.27;6.18;;;;;;;6.92;100.00;95917.22;1033954;28;20368;-68
2021/05/27 02:00:38;;;;;;;9.85;5.72;;;;;;;6.88;100.00;95910.91;1031217;28;20165;-68
2021/05/27 02:01:08;;;;;;;6.80;4.85;;;;;;;6.86;100.00;95924.16;1028958;28;20023;-69
2021/05/27 02:01:39;;;;;;;8.60;5.30;;;;;;;6.87;100.00;95919.75;1035415;28;20022;-67
2021/05/27 02:02:09;;;;;;;7.05;5.00;;;;;;;6.82;100.00;95912.63;1040239;28;20059;-65
2021/05/27 02:02:40;;;;;;;11.43;6.05;;;;;;;6.89;100.00;95918.47;1039282;28;20025;-67
2021/05/27 02:03:10;;;;;;;8.13;5.68;;;;;;;6.91;100.00;95915.63;1039139;28;20025;-68
2021/05/27 02:03:41;;;;;;;7.53;5.15;;;;;;;6.92;100.00;95914.63;1034582;28;20080;-69
2021/05/27 02:04:11;;;;;;;6.30;4.68;;;;;;;6.90;100.00;95924.50;1038758;28;20474;-69
2021/05/27 02:04:41;;;;;;;7.97;5.43;;;;;;;6.88;100.00;95922.13;1035351;28;20609;-65
2021/05/27 02:05:12;;;;;;;7.40;4.70;;;;;;;6.88;100.00;95916.91;1035183;28;20042;-66
2021/05/27 02:05:43;;;;;;;11.60;5.68;;;;;;;6.89;100.00;95912.47;1034330;28;20022;-67
2021/05/27 02:06:13;;;;;;;8.63;5.72;;;;;;;6.88;100.00;95910.91;1035371;28;20261;-67
2021/05/27 02:06:44;;;;;;;16.60;7.30;;;;;;;6.92;100.00;95927.66;1039093;28;20025;-68
2021/05/27 02:07:15;;;;;;;10.15;5.07;;;;;;;6.91;100.00;95916.44;1037366;28;20014;-66
2021/05/27 02:07:45;;;;;;;5.25;4.70;;;;;;;6.90;100.00;95914.06;1039063;28;20025;-66
2021/05/27 02:08:21;;;;;;;7.80;5.55;;;;;;;6.90;100.00;95917.44;1035280;28;20495;-66
2021/05/27 02:09:40;;;;;;;10.07;6.03;;;;;;;6.88;100.00;95910.91;1031111;28;20711;-66
2021/05/27 02:10:11;;;;;;;11.18;5.20;;;;;;;6.90;100.00;95906.22;1031132;28;20276;-67
2021/05/27 02:10:41;;;;;;;7.70;4.40;;;;;;;6.81;100.00;95905.84;1029324;28;20269;-66
2021/05/27 02:11:12;;;;;;;6.70;4.80;;;;;;;6.83;100.00;95899.34;1033617;28;20014;-67
2021/05/27 02:11:44;;;;;;;6.72;4.88;;;;;;;6.88;100.00;95910.91;1031142;28;20022;-66
2021/05/27 02:12:14;;;;;;;6.45;4.80;;;;;;;6.89;100.00;95913.28;1029612;28;20082;-67
2021/05/27 02:12:45;;;;;;;5.88;4.35;;;;;;;6.88;100.00;95916.13;1027426;28;21031;-66
2021/05/27 02:13:15;;;;;;;6.55;4.13;;;;;;;6.85;100.00;95902.50;1027550;28;20027;-66
2021/05/27 02:13:46;;;;;;;9.15;5.10;;;;;;;6.85;100.00;95918.16;1030963;28;20018;-68
2021/05/27 02:14:19;;;;;;;6.32;4.47;;;;;;;6.84;100.00;95916.59;1035129;28;20017;-66
2021/05/27 02:14:49;;;;;;;6.63;4.55;;;;;;;6.87;100.00;95911.91;1031515;28;20026;-67
2021/05/27 02:15:20;;;;;;;8.38;4.38;;;;;;;6.87;100.00;95920.53;1035549;28;20320;-67
2021/05/27 02:15:50;;;;;;;5.65;4.43;;;;;;;6.87;100.00;95919.75;1041665;28;20017;-69
2021/05/27 02:16:20;;;;;;;6.70;4.32;;;;;;;6.87;100.00;95919.75;1039385;28;20018;-68
2021/05/27 02:16:51;;;;;;;5.72;3.92;;;;;;;6.87;100.00;95914.53;1039158;28;20064;-69
2021/05/27 02:17:21;;;;;;;8.00;5.38;;;;;;;6.85;100.00;95917.38;1039146;28;20092;-69
2021/05/27 02:17:52;;;;;;;6.80;4.40;;;;;;;6.84;100.00;95916.59;1034520;28;20022;-69
2021/05/27 02:18:22;;;;;;;9.18;5.22;;;;;;;6.82;100.00;95916.03;1035191;28;20030;-67
2021/05/27 02:18:53;;;;;;;6.72;4.78;;;;;;;6.81;100.00;95921.47;1034901;28;20030;-70
2021/05/27 02:19:23;;;;;;;6.53;4.47;;;;;;;6.80;100.00;95919.88;1030860;28;20022;-66
2021/05/27 02:19:54;;;;;;;8.23;4.50;;;;;;;6.77;100.00;95921.16;1031047;28;20019;-69
2021/05/27 02:20:24;;;;;;;6.03;4.90;;;;;;;6.78;100.00;95917.53;1026798;28;20481;-67
2021/05/27 02:20:55;;;;;;;5.68;4.05;;;;;;;6.78;100.00;95922.75;1034088;28;20029;-68
2021/05/27 02:21:25;;;;;;;6.88;4.78;;;;;;;6.76;100.00;95922.16;1031451;28;20057;-70
2021/05/27 02:21:56;;;;;;;7.25;5.18;;;;;;;6.79;100.00;95926.91;1033897;28;20029;-68
2021/05/27 02:22:26;;;;;;;8.98;5.22;;;;;;;6.75;100.00;95912.78;1034575;28;20418;-68
2021/05/27 02:22:57;;;;;;;6.50;4.95;;;;;;;6.79;100.00;95931.34;1031131;28;20029;-70
2021/05/27 02:23:27;;;;;;;6.60;4.28;;;;;;;6.69;100.00;95916.31;1035151;28;20037;-66
2021/05/27 02:23:59;;;;;;;6.78;4.20;;;;;;;6.71;100.00;95916.88;1031189;28;20178;-69
2021/05/27 02:24:29;;;;;;;5.90;4.38;;;;;;;6.72;100.00;95923.66;1037925;28;20510;-69
2021/05/27 02:25:00;;;;;;;8.35;5.13;;;;;;;6.71;100.00;95922.09;1034885;28;20272;-69
2021/05/27 02:25:30;;;;;;;6.22;4.40;;;;;;;6.72;100.00;95918.44;1034078;28;20029;-69
2021/05/27 02:26:01;;;;;;;8.63;4.35;;;;;;;6.65;100.00;95904.75;1027902;28;20887;-68
2021/05/27 02:26:31;;;;;;;7.45;4.35;;;;;;;6.77;100.00;95929.00;1034837;28;20025;-69
2021/05/27 02:27:02;;;;;;;8.20;5.38;;;;;;;6.77;100.00;95929.00;1037715;28;20014;-66
2021/05/27 02:27:33;;;;;;;8.10;5.40;;;;;;;6.72;100.00;95923.66;1038932;28;20067;-67
2021/05/27 02:28:04;;;;;;;7.53;5.18;;;;;;;6.81;100.00;95932.72;1039133;28;20818;-66
2021/05/27 02:28:34;;;;;;;6.10;4.57;;;;;;;6.78;100.00;95930.56;1038278;28;20268;-66
2021/05/27 02:29:05;;;;;;;8.27;5.70;;;;;;;6.73;100.00;95920.03;1039164;28;20018;-68